createdAt,value
2023-05-25T00:00:57.566Z,12.70
2023-05-25T00:03:32.348Z,12.70
2023-05-25T00:06:02.753Z,12.70
2023-05-25T00:08:36.836Z,12.70
2023-05-25T00:11:11.856Z,12.70
2023-05-25T00:13:49.388Z,12.70
2023-05-25T00:16:20.337Z,12.60
2023-05-25T00:18:56.307Z,12.60
2023-05-25T00:21:29.184Z,12.50
2023-05-25T00:24:00.922Z,12.50
2023-05-25T00:26:30.079Z,12.40
2023-05-25T00:29:04.799Z,12.30
2023-05-25T00:31:39.038Z,12.30
2023-05-25T00:34:10.553Z,12.30
2023-05-25T00:36:47.211Z,12.20
2023-05-25T00:39:30.049Z,12.20
2023-05-25T00:42:06.647Z,12.10
2023-05-25T00:44:52.330Z,12.10
2023-05-25T00:47:30.781Z,12.10
2023-05-25T00:50:08.207Z,12.10
2023-05-25T00:52:39.427Z,12.00
2023-05-25T00:55:18.548Z,12.00
2023-05-25T00:58:02.129Z,12.10
2023-05-25T01:00:41.386Z,12.20
2023-05-25T01:03:28.846Z,12.10
2023-05-25T01:06:05.050Z,12.10
2023-05-25T01:08:36.946Z,12.10
2023-05-25T01:11:13.997Z,12.10
2023-05-25T01:13:44.894Z,12.20
2023-05-25T01:16:24.261Z,12.20
2023-05-25T01:18:59.064Z,12.20
2023-05-25T01:21:44.595Z,12.10
2023-05-25T01:24:30.270Z,12.10
2023-05-25T01:27:08.034Z,12.10
2023-05-25T01:29:49.455Z,12.10
2023-05-25T01:32:23.579Z,12.10
2023-05-25T01:34:59.221Z,12.10
2023-05-25T01:37:42.619Z,12.00
2023-05-25T01:40:13.813Z,12.00
2023-05-25T01:42:51.678Z,12.00
2023-05-25T01:45:23.386Z,12.00
2023-05-25T01:48:01.326Z,12.00
2023-05-25T01:50:43.097Z,12.00
2023-05-25T01:53:24.853Z,12.00
2023-05-25T01:56:04.185Z,12.00
2023-05-25T01:58:39.824Z,12.00
2023-05-25T02:01:15.972Z,12.00
2023-05-25T02:03:52.682Z,12.00
2023-05-25T02:06:33.256Z,12.00
2023-05-25T02:09:22.360Z,12.00
2023-05-25T02:11:58.457Z,12.00
2023-05-25T02:14:32.524Z,11.90
2023-05-25T02:17:05.438Z,11.90
2023-05-25T02:19:39.355Z,11.90
2023-05-25T02:22:07.742Z,11.80
2023-05-25T02:24:56.428Z,11.80
2023-05-25T02:27:28.335Z,11.80
2023-05-25T02:30:07.296Z,11.70
2023-05-25T02:32:43.422Z,11.70
2023-05-25T02:35:21.422Z,11.70
2023-05-25T02:37:55.153Z,11.60
2023-05-25T02:40:40.521Z,11.60
2023-05-25T02:43:22.252Z,11.60
2023-05-25T02:45:57.546Z,11.60
2023-05-25T02:48:26.632Z,11.50
2023-05-25T02:50:59.377Z,11.50
2023-05-25T02:53:38.058Z,11.50
2023-05-25T02:56:14.069Z,11.50
2023-05-25T02:58:44.842Z,11.50
2023-05-25T03:01:34.146Z,11.40
2023-05-25T03:04:04.906Z,11.40
2023-05-25T03:06:55.447Z,11.40
2023-05-25T03:09:28.593Z,11.30
2023-05-25T03:12:02.856Z,11.30
2023-05-25T03:14:37.651Z,11.30
2023-05-25T03:17:35.021Z,11.20
2023-05-25T03:20:27.510Z,11.20
2023-05-25T03:23:03.724Z,11.20
2023-05-25T03:25:47.282Z,11.20
2023-05-25T03:28:24.684Z,11.20
2023-05-25T03:31:04.615Z,11.20
2023-05-25T03:33:39.388Z,11.20
2023-05-25T03:36:17.146Z,11.20
2023-05-25T03:38:50.923Z,11.20
2023-05-25T03:41:34.465Z,11.20
2023-05-25T03:44:13.222Z,11.30
2023-05-25T03:46:48.051Z,11.30
2023-05-25T03:49:24.762Z,11.30
2023-05-25T03:52:01.736Z,11.30
2023-05-25T03:54:33.468Z,11.40
2023-05-25T03:57:03.945Z,11.40
2023-05-25T03:59:49.700Z,11.40
2023-05-25T04:02:24.665Z,11.40
2023-05-25T04:04:55.894Z,11.40
2023-05-25T04:07:30.473Z,11.50
2023-05-25T04:10:01.733Z,11.50
2023-05-25T04:12:34.746Z,11.50
2023-05-25T04:15:27.166Z,11.60
2023-05-25T04:18:17.289Z,11.60
2023-05-25T04:20:57.216Z,11.70
2023-05-25T04:23:29.267Z,11.80
2023-05-25T04:26:12.878Z,11.80
2023-05-25T04:28:44.685Z,11.90
2023-05-25T04:31:32.575Z,11.90
2023-05-25T04:34:24.101Z,12.10
2023-05-25T04:37:07.674Z,12.20
2023-05-25T04:39:39.004Z,12.30
2023-05-25T04:42:15.724Z,12.40
2023-05-25T04:44:49.968Z,12.50
2023-05-25T04:47:24.588Z,12.60
2023-05-25T04:50:01.780Z,12.70
2023-05-25T04:52:45.375Z,12.80
2023-05-25T04:55:16.018Z,13.00
2023-05-25T04:57:56.420Z,13.20
2023-05-25T05:00:27.112Z,13.20
2023-05-25T05:03:15.563Z,13.30
2023-05-25T05:05:51.844Z,13.40
2023-05-25T05:08:34.628Z,13.50
2023-05-25T05:11:11.505Z,13.60
2023-05-25T05:13:46.522Z,13.70
2023-05-25T05:16:19.734Z,13.90
2023-05-25T05:19:04.065Z,14.10
2023-05-25T05:21:36.605Z,14.30
2023-05-25T05:24:14.391Z,14.50
2023-05-25T05:26:58.405Z,14.90
2023-05-25T05:29:53.242Z,15.50
2023-05-25T05:32:26.527Z,16.60
2023-05-25T05:35:14.121Z,17.60
2023-05-25T05:37:54.863Z,18.50
2023-05-25T05:40:29.034Z,19.30
2023-05-25T05:43:03.352Z,19.70
2023-05-25T05:45:36.545Z,19.90
2023-05-25T05:48:12.986Z,20.20
2023-05-25T05:51:01.078Z,20.80
2023-05-25T05:53:36.345Z,21.30
2023-05-25T05:56:06.556Z,21.70
2023-05-25T05:58:44.752Z,22.20
2023-05-25T06:01:21.589Z,22.40
2023-05-25T06:03:54.683Z,22.40
2023-05-25T06:06:43.752Z,22.40
2023-05-25T06:09:22.731Z,22.50
2023-05-25T06:11:53.341Z,22.20
2023-05-25T06:14:27.489Z,21.70
2023-05-25T06:17:02.791Z,21.00
2023-05-25T06:19:44.361Z,20.50
2023-05-25T06:22:19.902Z,19.80
2023-05-25T06:24:53.135Z,19.20
2023-05-25T06:27:29.460Z,18.50
2023-05-25T06:30:15.223Z,17.60
2023-05-25T06:32:51.764Z,17.00
2023-05-25T06:35:29.463Z,16.40
2023-05-25T06:38:11.401Z,16.10
2023-05-25T06:40:45.438Z,15.80
2023-05-25T06:43:19.118Z,15.50
2023-05-25T06:46:19.483Z,15.30
2023-05-25T06:48:49.676Z,15.20
2023-05-25T06:51:23.530Z,15.10
2023-05-25T06:53:57.430Z,15.10
2023-05-25T06:56:34.087Z,15.10
2023-05-25T06:59:09.164Z,15.10
2023-05-25T07:01:46.167Z,15.10
2023-05-25T07:04:30.405Z,15.10
2023-05-25T07:07:04.390Z,15.10
2023-05-25T07:09:44.364Z,15.10
2023-05-25T07:12:18.166Z,15.20
2023-05-25T07:14:48.576Z,15.20
2023-05-25T07:17:28.848Z,15.20
2023-05-25T07:19:59.646Z,15.20
2023-05-25T07:22:39.307Z,15.30
2023-05-25T07:25:14.520Z,15.40
2023-05-25T07:27:48.890Z,15.40
2023-05-25T07:30:29.228Z,15.40
2023-05-25T07:33:09.760Z,15.40
2023-05-25T07:35:48.782Z,15.40
2023-05-25T07:38:27.132Z,15.50
2023-05-25T07:40:56.335Z,15.60
2023-05-25T07:43:31.474Z,15.60
2023-05-25T07:46:07.537Z,15.70
2023-05-25T07:48:43.109Z,15.80
2023-05-25T07:51:16.714Z,15.80
2023-05-25T07:53:58.309Z,15.90
2023-05-25T07:56:34.660Z,16.00
2023-05-25T07:59:09.798Z,16.00
2023-05-25T08:01:48.291Z,16.10
2023-05-25T08:04:17.292Z,16.20
2023-05-25T08:06:53.729Z,16.20
2023-05-25T08:09:25.936Z,16.20
2023-05-25T08:12:21.327Z,16.20
2023-05-25T08:14:59.689Z,16.20
2023-05-25T08:17:41.991Z,16.20
2023-05-25T08:20:18.165Z,16.30
2023-05-25T08:22:56.935Z,16.40
2023-05-25T08:25:28.603Z,16.50
2023-05-25T08:28:06.598Z,16.50
2023-05-25T08:30:41.923Z,16.50
2023-05-25T08:33:14.276Z,16.50
2023-05-25T08:35:45.139Z,16.60
2023-05-25T08:38:16.324Z,16.70
2023-05-25T08:40:53.020Z,16.70
2023-05-25T08:43:24.614Z,16.70
2023-05-25T08:45:57.332Z,16.80
2023-05-25T08:48:44.881Z,16.80
2023-05-25T08:51:17.789Z,16.90
2023-05-25T08:53:57.438Z,17.00
2023-05-25T08:56:36.914Z,17.00
2023-05-25T08:59:19.290Z,17.10
2023-05-25T09:02:02.855Z,17.20
2023-05-25T09:04:33.986Z,17.20
2023-05-25T09:07:10.529Z,17.20
2023-05-25T09:09:44.928Z,17.30
2023-05-25T09:12:23.500Z,17.30
2023-05-25T09:14:58.608Z,17.30
2023-05-25T09:17:34.144Z,17.40
2023-05-25T09:20:14.330Z,17.40
2023-05-25T09:22:45.286Z,17.50
2023-05-25T09:25:29.007Z,17.60
2023-05-25T09:28:10.216Z,17.60
2023-05-25T09:31:00.192Z,17.70
2023-05-25T09:33:33.939Z,17.80
2023-05-25T09:36:09.288Z,17.80
2023-05-25T09:38:42.887Z,17.80
2023-05-25T09:41:15.143Z,17.80
2023-05-25T09:44:02.099Z,17.80
2023-05-25T09:46:47.251Z,17.90
2023-05-25T09:49:22.470Z,17.90
2023-05-25T09:51:55.178Z,18.00
2023-05-25T09:54:39.299Z,17.90
2023-05-25T09:57:11.398Z,18.00
2023-05-25T09:59:42.662Z,18.10
2023-05-25T10:02:20.492Z,18.10
2023-05-25T10:05:00.673Z,18.10
2023-05-25T10:07:34.835Z,18.20
2023-05-25T10:10:19.216Z,18.30
2023-05-25T10:12:57.683Z,18.30
2023-05-25T10:15:29.802Z,18.30
2023-05-25T10:18:03.737Z,18.30
2023-05-25T10:20:49.060Z,18.40
2023-05-25T10:23:23.374Z,18.40
2023-05-25T10:26:01.326Z,18.50
2023-05-25T10:28:37.035Z,18.60
2023-05-25T10:31:17.984Z,18.60
2023-05-25T10:33:53.460Z,18.70
2023-05-25T10:36:32.219Z,18.70
2023-05-25T10:39:12.141Z,18.70
2023-05-25T10:41:52.693Z,18.70
2023-05-25T10:44:24.597Z,18.90
2023-05-25T10:46:56.456Z,18.90
2023-05-25T10:49:56.750Z,19.00
2023-05-25T10:52:31.638Z,19.00
2023-05-25T10:55:07.979Z,19.10
2023-05-25T10:57:40.634Z,19.10
2023-05-25T11:00:10.686Z,19.10
2023-05-25T11:03:00.805Z,19.10
2023-05-25T11:05:41.012Z,19.10
2023-05-25T11:08:20.311Z,19.10
2023-05-25T11:11:02.950Z,19.10
2023-05-25T11:13:41.533Z,19.20
2023-05-25T11:16:28.249Z,19.20
2023-05-25T11:19:02.647Z,19.10
2023-05-25T11:21:56.175Z,19.20
2023-05-25T11:24:27.600Z,19.30
2023-05-25T11:27:05.127Z,19.30
2023-05-25T11:29:39.947Z,19.40
2023-05-25T11:32:18.252Z,19.40
2023-05-25T11:34:52.812Z,19.50
2023-05-25T11:37:33.581Z,19.50
2023-05-25T11:40:16.940Z,19.60
2023-05-25T11:43:04.610Z,19.60
2023-05-25T11:45:41.169Z,19.60
2023-05-25T11:48:22.012Z,19.60
2023-05-25T11:51:09.237Z,19.70
2023-05-25T11:53:53.064Z,19.70
2023-05-25T11:56:35.652Z,19.70
2023-05-25T11:59:14.949Z,19.70
2023-05-25T12:01:48.955Z,19.80
2023-05-25T12:04:23.258Z,19.90
2023-05-25T12:07:05.483Z,20.00
2023-05-25T12:09:45.466Z,20.00
2023-05-25T12:12:18.870Z,20.10
2023-05-25T12:15:00.263Z,20.10
2023-05-25T12:17:32.145Z,20.20
2023-05-25T12:20:05.303Z,20.30
2023-05-25T12:22:40.770Z,20.30
2023-05-25T12:25:20.862Z,20.30
2023-05-25T12:28:13.241Z,20.40
2023-05-25T12:30:48.559Z,20.40
2023-05-25T12:33:25.464Z,20.40
2023-05-25T12:36:00.502Z,20.40
2023-05-25T12:38:41.235Z,20.50
2023-05-25T12:41:19.511Z,20.60
2023-05-25T12:43:58.577Z,20.60
2023-05-25T12:46:31.614Z,20.60
2023-05-25T12:49:10.549Z,20.70
2023-05-25T12:51:48.751Z,20.80
2023-05-25T12:54:18.662Z,20.80
2023-05-25T12:57:10.894Z,20.90
2023-05-25T12:59:42.827Z,21.00
2023-05-25T13:02:14.929Z,21.10
2023-05-25T13:04:47.109Z,21.10
2023-05-25T13:07:25.010Z,21.10
2023-05-25T13:10:03.983Z,21.00
2023-05-25T13:12:36.017Z,21.00
2023-05-25T13:15:12.578Z,21.10
2023-05-25T13:17:43.807Z,21.10
2023-05-25T13:20:18.384Z,21.20
2023-05-25T13:22:53.053Z,21.20
2023-05-25T13:25:25.554Z,21.20
2023-05-25T13:28:00.777Z,21.10
2023-05-25T13:30:40.605Z,21.20
2023-05-25T13:33:12.135Z,21.20
2023-05-25T13:36:00.397Z,21.30
2023-05-25T13:38:31.226Z,21.30
2023-05-25T13:41:01.005Z,21.40
2023-05-25T13:43:32.669Z,21.40
2023-05-25T13:46:10.017Z,21.40
2023-05-25T13:48:55.641Z,21.50
2023-05-25T13:51:38.837Z,21.60
2023-05-25T13:54:14.701Z,21.60
2023-05-25T13:56:44.466Z,21.70
2023-05-25T13:59:16.351Z,21.60
2023-05-25T14:01:48.500Z,21.70
2023-05-25T14:04:25.076Z,21.70
2023-05-25T14:06:57.073Z,21.70
2023-05-25T14:09:31.662Z,21.70
2023-05-25T14:12:12.421Z,21.70
2023-05-25T14:14:52.520Z,21.70
2023-05-25T14:17:27.564Z,21.70
2023-05-25T14:20:03.260Z,21.80
2023-05-25T14:22:34.565Z,21.80
2023-05-25T14:25:04.486Z,21.80
2023-05-25T14:27:36.816Z,21.80
2023-05-25T14:30:12.919Z,21.90
2023-05-25T14:32:45.612Z,21.90
2023-05-25T14:35:26.654Z,21.90
2023-05-25T14:38:02.025Z,22.00
2023-05-25T14:40:39.012Z,22.00
2023-05-25T14:43:11.012Z,22.00
2023-05-25T14:45:43.273Z,22.10
2023-05-25T14:48:29.847Z,22.10
2023-05-25T14:51:14.439Z,22.10
2023-05-25T14:53:47.263Z,22.20
2023-05-25T14:56:22.230Z,22.20
2023-05-25T14:58:57.178Z,22.30
2023-05-25T15:01:30.682Z,22.30
2023-05-25T15:04:02.495Z,22.20
2023-05-25T15:06:35.277Z,22.20
2023-05-25T15:09:07.452Z,22.20
2023-05-25T15:11:43.262Z,22.30
2023-05-25T15:14:18.338Z,22.30
2023-05-25T15:16:56.654Z,22.30
2023-05-25T15:19:25.086Z,22.30
2023-05-25T15:21:59.329Z,22.40
2023-05-25T15:24:31.879Z,22.30
2023-05-25T15:27:00.361Z,22.40
2023-05-25T15:29:35.636Z,22.30
2023-05-25T15:32:22.200Z,22.40
2023-05-25T15:35:01.296Z,22.50
2023-05-25T15:37:44.115Z,22.60
2023-05-25T15:40:24.767Z,22.60
2023-05-25T15:43:01.821Z,22.60
2023-05-25T15:45:32.876Z,22.70
2023-05-25T15:48:21.478Z,22.70
2023-05-25T15:50:52.325Z,22.80
2023-05-25T15:53:34.808Z,22.80
2023-05-25T15:56:12.439Z,22.80
2023-05-25T15:58:50.856Z,22.80
2023-05-25T16:01:21.379Z,22.90
2023-05-25T16:03:58.584Z,22.90
2023-05-25T16:06:37.375Z,23.00
2023-05-25T16:09:08.825Z,22.90
2023-05-25T16:11:48.138Z,23.00
2023-05-25T16:14:24.020Z,22.90
2023-05-25T16:16:56.865Z,22.90
2023-05-25T16:19:28.722Z,22.90
2023-05-25T16:22:04.823Z,22.90
2023-05-25T16:24:38.096Z,22.90
2023-05-25T16:27:23.259Z,22.90
2023-05-25T16:29:56.954Z,22.90
2023-05-25T16:32:34.683Z,22.90
2023-05-25T16:35:11.180Z,22.90
2023-05-25T16:37:44.877Z,23.00
2023-05-25T16:40:15.688Z,22.90
2023-05-25T16:42:52.491Z,22.90
2023-05-25T16:45:32.447Z,22.90
2023-05-25T16:48:03.462Z,22.90
2023-05-25T16:50:40.414Z,22.80
2023-05-25T16:53:20.048Z,22.80
2023-05-25T16:55:53.895Z,22.80
2023-05-25T16:58:28.436Z,22.80
2023-05-25T17:01:03.141Z,22.90
2023-05-25T17:03:34.598Z,22.90
2023-05-25T17:06:07.298Z,22.90
2023-05-25T17:08:44.428Z,22.80
2023-05-25T17:11:26.698Z,22.80
2023-05-25T17:14:04.724Z,22.80
2023-05-25T17:16:43.988Z,22.80
2023-05-25T17:19:18.122Z,22.80
2023-05-25T17:21:56.817Z,22.80
2023-05-25T17:24:31.310Z,22.80
2023-05-25T17:27:03.837Z,22.80
2023-05-25T17:29:32.556Z,22.80
2023-05-25T17:32:10.453Z,22.80
2023-05-25T17:34:49.299Z,22.80
2023-05-25T17:37:32.685Z,22.80
2023-05-25T17:40:00.999Z,22.70
2023-05-25T17:42:32.826Z,22.60
2023-05-25T17:45:05.391Z,22.60
2023-05-25T17:47:35.622Z,22.60
2023-05-25T17:50:15.811Z,22.60
2023-05-25T17:52:55.259Z,22.60
2023-05-25T17:55:31.843Z,22.60
2023-05-25T17:58:01.045Z,22.50
2023-05-25T18:00:34.336Z,22.50
2023-05-25T18:03:04.483Z,22.40
2023-05-25T18:05:39.180Z,22.40
2023-05-25T18:08:13.659Z,22.30
2023-05-25T18:10:45.969Z,22.40
2023-05-25T18:13:17.378Z,22.30
2023-05-25T18:15:50.623Z,22.30
2023-05-25T18:18:25.919Z,22.30
2023-05-25T18:20:54.862Z,22.20
2023-05-25T18:23:30.702Z,22.20
2023-05-25T18:26:04.278Z,22.20
2023-05-25T18:28:44.661Z,22.10
2023-05-25T18:31:18.264Z,22.10
2023-05-25T18:33:51.441Z,22.00
2023-05-25T18:36:23.413Z,22.00
2023-05-25T18:38:59.299Z,21.90
2023-05-25T18:41:32.671Z,21.90
2023-05-25T18:44:04.387Z,21.80
2023-05-25T18:46:34.770Z,21.80
2023-05-25T18:49:09.327Z,21.70
2023-05-25T18:51:43.024Z,21.60
2023-05-25T18:54:20.454Z,21.60
2023-05-25T18:56:55.160Z,21.50
2023-05-25T18:59:36.812Z,21.40
2023-05-25T19:02:07.137Z,21.30
2023-05-25T19:04:43.339Z,21.20
2023-05-25T19:07:17.388Z,21.20
2023-05-25T19:09:54.219Z,21.10
2023-05-25T19:12:27.671Z,21.00
2023-05-25T19:15:05.098Z,20.90
2023-05-25T19:17:42.557Z,20.90
2023-05-25T19:20:17.469Z,20.90
2023-05-25T19:22:52.372Z,20.80
2023-05-25T19:25:33.261Z,20.80
2023-05-25T19:28:04.596Z,20.70
2023-05-25T19:30:38.524Z,20.60
2023-05-25T19:33:16.278Z,20.60
2023-05-25T19:35:50.126Z,20.50
2023-05-25T19:38:34.290Z,20.50
2023-05-25T19:41:19.093Z,20.40
2023-05-25T19:43:58.295Z,20.40
2023-05-25T19:46:35.372Z,20.30
2023-05-25T19:49:10.441Z,20.20
2023-05-25T19:51:40.842Z,20.20
2023-05-25T19:54:19.980Z,20.00
2023-05-25T19:56:59.518Z,20.00
2023-05-25T19:59:38.541Z,19.90
2023-05-25T20:02:11.987Z,19.90
2023-05-25T20:04:45.690Z,19.90
2023-05-25T20:07:20.068Z,19.80
2023-05-25T20:09:54.093Z,19.70
2023-05-25T20:12:34.283Z,19.70
2023-05-25T20:15:07.641Z,19.70
2023-05-25T20:17:52.547Z,19.70
2023-05-25T20:20:30.321Z,19.60
2023-05-25T20:23:13.193Z,19.60
2023-05-25T20:25:48.261Z,19.60
2023-05-25T20:28:27.538Z,19.60
2023-05-25T20:31:06.609Z,19.50
2023-05-25T20:33:41.714Z,19.50
2023-05-25T20:36:15.951Z,19.50
2023-05-25T20:38:50.395Z,19.40
2023-05-25T20:41:27.049Z,19.40
2023-05-25T20:44:09.634Z,19.30
2023-05-25T20:46:42.232Z,19.30
2023-05-25T20:49:15.038Z,19.30
2023-05-25T20:51:51.052Z,19.20
2023-05-25T20:54:24.794Z,19.20
2023-05-25T20:57:03.697Z,19.20
2023-05-25T20:59:41.683Z,19.10
2023-05-25T21:02:13.062Z,19.00
2023-05-25T21:04:43.892Z,18.90
2023-05-25T21:07:21.675Z,18.80
2023-05-25T21:09:59.566Z,18.70
2023-05-25T21:12:31.238Z,18.70
2023-05-25T21:15:14.623Z,18.70
2023-05-25T21:17:45.435Z,18.70
2023-05-25T21:20:18.923Z,18.70
2023-05-25T21:22:51.863Z,18.70
2023-05-25T21:25:26.372Z,18.70
2023-05-25T21:27:57.301Z,18.70
2023-05-25T21:30:37.761Z,18.60
2023-05-25T21:33:09.223Z,18.60
2023-05-25T21:35:43.497Z,18.60
2023-05-25T21:38:21.689Z,18.60
2023-05-25T21:41:01.642Z,18.50
2023-05-25T21:46:25.149Z,18.50
2023-05-25T21:49:02.148Z,18.50
2023-05-25T21:51:32.972Z,18.40
2023-05-25T21:54:06.631Z,18.40
2023-05-25T21:56:44.901Z,18.40
2023-05-25T21:59:19.162Z,18.30
2023-05-25T22:01:53.673Z,18.30
2023-05-25T22:04:34.094Z,18.20
2023-05-25T22:07:04.591Z,18.20
2023-05-25T22:09:43.760Z,18.20
2023-05-25T22:12:20.837Z,18.20
2023-05-25T22:14:58.490Z,18.10
2023-05-25T22:17:42.439Z,18.10
2023-05-25T22:20:18.942Z,18.00
2023-05-25T22:22:59.322Z,18.00
2023-05-25T22:25:39.689Z,18.00
2023-05-25T22:28:18.923Z,18.00
2023-05-25T22:30:56.907Z,17.90
2023-05-25T22:33:32.705Z,17.90
2023-05-25T22:36:03.835Z,17.90
2023-05-25T22:38:43.345Z,17.80
2023-05-25T22:41:20.368Z,17.80
2023-05-25T22:44:05.197Z,17.70
2023-05-25T22:46:42.984Z,17.70
2023-05-25T22:49:20.891Z,17.60
2023-05-25T22:52:01.299Z,17.60
2023-05-25T22:54:33.541Z,17.60
2023-05-25T22:57:06.689Z,17.50
2023-05-25T22:59:35.832Z,17.50
2023-05-25T23:02:13.298Z,17.40
2023-05-25T23:04:48.983Z,17.40
2023-05-25T23:07:23.771Z,17.30
2023-05-25T23:10:08.061Z,17.30
2023-05-25T23:12:37.760Z,17.30
2023-05-25T23:15:16.719Z,17.20
2023-05-25T23:17:48.872Z,17.20
2023-05-25T23:20:27.539Z,17.20
2023-05-25T23:23:08.128Z,17.10
2023-05-25T23:25:42.117Z,17.10
2023-05-25T23:28:22.230Z,17.00
2023-05-25T23:30:56.392Z,16.90
2023-05-25T23:33:29.237Z,16.80
2023-05-25T23:36:05.980Z,16.80
2023-05-25T23:38:39.250Z,16.80
2023-05-25T23:41:12.510Z,16.80
2023-05-25T23:43:47.855Z,16.80
2023-05-25T23:46:20.029Z,16.80
2023-05-25T23:48:53.712Z,16.70
2023-05-25T23:51:24.877Z,16.60
2023-05-25T23:53:56.513Z,16.50
2023-05-25T23:56:32.307Z,16.40
2023-05-25T23:59:06.571Z,16.40
